CheckWX is a tool to help pilots better visualize weather data.  It is not intended as a substitute for an official pre-flight weather briefing.

05:08:21 UTC

KLEE METAR
Leesburg International Airport
Leesburg, Florida, USA
Current

15 mins ago

KLEE 080453Z AUTO 02004KT 10SM OVC100 17/14 A3019 RMK AO2 SLP222 T01670139 402500089
Observed
Dec-8 @ 04:53 UTC
Wind
  • 020° at 4 KTS
Visibility
10 SM
Flight Rules
VFR
Cloud Levels
  • Overcast at 10,000' AGL
Temperature
17°C / 63°F
Dewpoint
14°C / 57°F
Humidity
83%
Altimeter
30.19" Hg
Pressure
1022.32 hPa
Previous

1 hour ago

KLEE 080353Z AUTO 02004KT 10SM FEW095 16/13 A3020 RMK AO2 SLP227 T01610133
Observed
Dec-8 @ 03:53 UTC
Wind
  • 020° at 4 KTS
Visibility
10 SM
Flight Rules
VFR
Cloud Levels
  • Few at 9,500' AGL
Temperature
16°C / 61°F
Dewpoint
13°C / 55°F
Humidity
83%
Altimeter
30.2" Hg
Pressure
1022.72 hPa
Previous

2 hours ago

KLEE 080253Z AUTO 04009KT 10SM FEW095 17/13 A3019 RMK AO2 SLP223 T01720133 50001
Observed
Dec-8 @ 02:53 UTC
Wind
  • 040° at 9 KTS
Visibility
10 SM
Flight Rules
VFR
Cloud Levels
  • Few at 9,500' AGL
Temperature
17°C / 63°F
Dewpoint
13°C / 55°F
Humidity
77%
Altimeter
30.19" Hg
Pressure
1022.32 hPa